sensor_id;sensor_type;location;lat;lon;timestamp;pressure;altitude;pressure_sealevel;temperature;humidity
12172;BME280;6149;52.418;13.668;2023-05-01T00:00:00;101699.84;;;2.51;100.00
12172;BME280;6149;52.418;13.668;2023-05-01T00:02:29;101701.59;;;2.46;100.00
12172;BME280;6149;52.418;13.668;2023-05-01T00:04:57;101705.94;;;2.43;100.00
12172;BME280;6149;52.418;13.668;2023-05-01T00:07:24;101705.09;;;2.41;100.00
12172;BME280;6149;52.418;13.668;2023-05-01T00:09:53;101699.88;;;2.39;100.00
12172;BME280;6149;52.418;13.668;2023-05-01T00:12:20;101699.00;;;2.34;100.00
12172;BME280;6149;52.418;13.668;2023-05-01T00:14:48;101691.19;;;2.29;100.00
12172;BME280;6149;52.418;13.668;2023-05-01T00:17:16;101694.66;;;2.25;100.00
12172;BME280;6149;52.418;13.668;2023-05-01T00:19:44;101692.94;;;2.21;100.00
12172;BME280;6149;52.418;13.668;2023-05-01T00:22:12;101687.75;;;2.18;100.00
12172;BME280;6149;52.418;13.668;2023-05-01T00:24:40;101689.47;;;2.16;100.00
12172;BME280;6149;52.418;13.668;2023-05-01T00:27:07;101692.97;;;2.12;100.00
12172;BME280;6149;52.418;13.668;2023-05-01T00:29:34;101698.19;;;2.08;100.00
12172;BME280;6149;52.418;13.668;2023-05-01T00:32:06;101691.22;;;2.05;100.00
12172;BME280;6149;52.418;13.668;2023-05-01T00:34:34;101692.09;;;2.07;100.00
12172;BME280;6149;52.418;13.668;2023-05-01T00:37:01;101692.09;;;2.03;100.00
12172;BME280;6149;52.418;13.668;2023-05-01T00:39:27;101690.34;;;2.00;100.00
12172;BME280;6149;52.418;13.668;2023-05-01T00:41:55;101686.00;;;1.94;100.00
12172;BME280;6149;52.418;13.668;2023-05-01T00:44:21;101685.13;;;1.91;100.00
12172;BME280;6149;52.418;13.668;2023-05-01T00:46:48;101689.47;;;1.89;100.00
12172;BME280;6149;52.418;13.668;2023-05-01T00:49:16;101686.88;;;1.87;100.00
12172;BME280;6149;52.418;13.668;2023-05-01T00:51:46;101686.88;;;1.86;100.00
12172;BME280;6149;52.418;13.668;2023-05-01T00:54:15;101684.25;;;1.86;100.00
12172;BME280;6149;52.418;13.668;2023-05-01T00:56:43;101683.41;;;1.84;100.00
12172;BME280;6149;52.418;13.668;2023-05-01T00:59:13;101677.34;;;1.79;100.00
12172;BME280;6149;52.418;13.668;2023-05-01T01:01:41;101672.97;;;1.78;100.00
12172;BME280;6149;52.418;13.668;2023-05-01T01:04:08;101676.47;;;1.74;100.00
12172;BME280;6149;52.418;13.668;2023-05-01T01:06:46;101673.84;;;1.72;100.00
12172;BME280;6149;52.418;13.668;2023-05-01T01:09:24;101673.84;;;1.69;100.00
12172;BME280;6149;52.418;13.668;2023-05-01T01:12:02;101672.09;;;1.65;100.00
12172;BME280;6149;52.418;13.668;2023-05-01T01:14:41;101665.16;;;1.62;100.00
12172;BME280;6149;52.418;13.668;2023-05-01T01:17:20;101673.81;;;1.58;100.00
12172;BME280;6149;52.418;13.668;2023-05-01T01:20:18;101671.22;;;1.57;100.00
12172;BME280;6149;52.418;13.668;2023-05-01T01:23:00;101675.56;;;1.53;100.00
12172;BME280;6149;52.418;13.668;2023-05-01T01:26:00;101663.41;;;1.48;100.00
12172;BME280;6149;52.418;13.668;2023-05-01T01:28:59;101674.72;;;1.47;100.00
12172;BME280;6149;52.418;13.668;2023-05-01T01:31:35;101659.94;;;1.44;100.00
12172;BME280;6149;52.418;13.668;2023-05-01T01:34:14;101653.84;;;1.41;100.00
12172;BME280;6149;52.418;13.668;2023-05-01T01:36:48;101659.06;;;1.39;100.00
12172;BME280;6149;52.418;13.668;2023-05-01T01:39:28;101659.91;;;1.37;100.00
12172;BME280;6149;52.418;13.668;2023-05-01T01:41:57;101659.91;;;1.37;100.00
12172;BME280;6149;52.418;13.668;2023-05-01T01:44:30;101657.31;;;1.35;100.00
12172;BME280;6149;52.418;13.668;2023-05-01T01:47:04;101652.09;;;1.32;100.00
12172;BME280;6149;52.418;13.668;2023-05-01T01:49:37;101651.22;;;1.30;100.00
12172;BME280;6149;52.418;13.668;2023-05-01T01:52:09;101647.72;;;1.25;100.00
12172;BME280;6149;52.418;13.668;2023-05-01T01:54:44;101651.19;;;1.21;100.00
12172;BME280;6149;52.418;13.668;2023-05-01T01:57:16;101651.19;;;1.19;100.00
12172;BME280;6149;52.418;13.668;2023-05-01T01:59:46;101649.47;;;1.20;100.00
12172;BME280;6149;52.418;13.668;2023-05-01T02:02:17;101646.84;;;1.21;100.00
12172;BME280;6149;52.418;13.668;2023-05-01T02:04:48;101648.59;;;1.19;100.00
12172;BME280;6149;52.418;13.668;2023-05-01T02:07:18;101637.28;;;1.17;100.00
12172;BME280;6149;52.418;13.668;2023-05-01T02:09:47;101638.16;;;1.13;100.00
12172;BME280;6149;52.418;13.668;2023-05-01T02:12:16;101632.09;;;1.11;100.00
12172;BME280;6149;52.418;13.668;2023-05-01T02:14:45;101639.00;;;1.12;100.00
12172;BME280;6149;52.418;13.668;2023-05-01T02:17:16;101635.53;;;1.13;100.00
12172;BME280;6149;52.418;13.668;2023-05-01T02:19:52;101633.81;;;1.14;100.00
12172;BME280;6149;52.418;13.668;2023-05-01T02:22:21;101633.81;;;1.14;100.00
12172;BME280;6149;52.418;13.668;2023-05-01T02:24:51;101629.47;;;1.16;100.00
12172;BME280;6149;52.418;13.668;2023-05-01T02:27:23;101628.63;;;1.17;100.00
12172;BME280;6149;52.418;13.668;2023-05-01T02:29:51;101623.38;;;1.12;100.00
12172;BME280;6149;52.418;13.668;2023-05-01T02:32:18;101624.28;;;1.10;100.00
12172;BME280;6149;52.418;13.668;2023-05-01T02:34:47;101626.88;;;1.08;100.00
12172;BME280;6149;52.418;13.668;2023-05-01T02:37:16;101615.59;;;1.06;100.00
12172;BME280;6149;52.418;13.668;2023-05-01T02:39:43;101616.47;;;1.04;100.00
12172;BME280;6149;52.418;13.668;2023-05-01T02:42:14;101609.50;;;1.04;100.00
12172;BME280;6149;52.418;13.668;2023-05-01T02:44:47;101608.63;;;0.99;100.00
12172;BME280;6149;52.418;13.668;2023-05-01T02:47:19;101608.63;;;0.96;100.00
12172;BME280;6149;52.418;13.668;2023-05-01T02:49:50;101602.53;;;0.94;100.00
12172;BME280;6149;52.418;13.668;2023-05-01T02:52:18;101598.19;;;0.91;100.00
12172;BME280;6149;52.418;13.668;2023-05-01T02:54:48;101598.19;;;0.88;100.00
12172;BME280;6149;52.418;13.668;2023-05-01T02:57:16;101597.28;;;0.83;100.00
12172;BME280;6149;52.418;13.668;2023-05-01T02:59:45;101590.34;;;0.82;100.00
12172;BME280;6149;52.418;13.668;2023-05-01T03:02:13;101591.22;;;0.81;100.00
12172;BME280;6149;52.418;13.668;2023-05-01T03:04:41;101586.88;;;0.80;100.00
12172;BME280;6149;52.418;13.668;2023-05-01T03:07:14;101578.19;;;0.78;100.00
12172;BME280;6149;52.418;13.668;2023-05-01T03:09:42;101576.44;;;0.77;100.00
12172;BME280;6149;52.418;13.668;2023-05-01T03:12:11;101565.16;;;0.75;100.00
12172;BME280;6149;52.418;13.668;2023-05-01T03:14:39;101562.59;;;0.74;100.00
12172;BME280;6149;52.418;13.668;2023-05-01T03:17:07;101569.53;;;0.73;100.00
12172;BME280;6149;52.418;13.668;2023-05-01T03:19:39;101553.03;;;0.71;100.00
12172;BME280;6149;52.418;13.668;2023-05-01T03:22:07;101554.78;;;0.71;100.00
12172;BME280;6149;52.418;13.668;2023-05-01T03:24:39;101556.50;;;0.70;100.00
12172;BME280;6149;52.418;13.668;2023-05-01T03:27:07;101557.38;;;0.71;100.00
12172;BME280;6149;52.418;13.668;2023-05-01T03:29:35;101551.31;;;0.70;100.00
12172;BME280;6149;52.418;13.668;2023-05-01T03:32:06;101547.81;;;0.70;100.00
12172;BME280;6149;52.418;13.668;2023-05-01T03:34:42;101554.78;;;0.71;100.00
12172;BME280;6149;52.418;13.668;2023-05-01T03:37:11;101553.03;;;0.70;100.00
12172;BME280;6149;52.418;13.668;2023-05-01T03:39:42;101547.81;;;0.70;100.00
12172;BME280;6149;52.418;13.668;2023-05-01T03:42:09;101554.78;;;0.71;100.00
12172;BME280;6149;52.418;13.668;2023-05-01T03:44:37;101545.22;;;0.70;100.00
12172;BME280;6149;52.418;13.668;2023-05-01T03:47:06;101542.63;;;0.71;100.00
12172;BME280;6149;52.418;13.668;2023-05-01T03:49:40;101541.78;;;0.74;100.00
12172;BME280;6149;52.418;13.668;2023-05-01T03:52:09;101547.81;;;0.76;100.00
12172;BME280;6149;52.418;13.668;2023-05-01T03:54:42;101548.69;;;0.76;100.00
12172;BME280;6149;52.418;13.668;2023-05-01T03:57:10;101548.69;;;0.76;100.00
12172;BME280;6149;52.418;13.668;2023-05-01T03:59:39;101548.69;;;0.79;100.00
12172;BME280;6149;52.418;13.668;2023-05-01T04:02:09;101542.63;;;0.80;100.00
12172;BME280;6149;52.418;13.668;2023-05-01T04:04:36;101540.91;;;0.82;100.00
12172;BME280;6149;52.418;13.668;2023-05-01T04:07:05;101539.16;;;0.83;100.00
12172;BME280;6149;52.418;13.668;2023-05-01T04:09:35;101550.44;;;0.86;100.00
12172;BME280;6149;52.418;13.668;2023-05-01T04:12:03;101546.97;;;0.87;100.00
12172;BME280;6149;52.418;13.668;2023-05-01T04:14:30;101540.03;;;0.91;100.00
12172;BME280;6149;52.418;13.668;2023-05-01T04:16:57;101535.72;;;0.93;100.00
12172;BME280;6149;52.418;13.668;2023-05-01T04:19:23;101547.00;;;0.96;100.00
12172;BME280;6149;52.418;13.668;2023-05-01T04:21:50;101547.88;;;1.02;100.00
12172;BME280;6149;52.418;13.668;2023-05-01T04:24:18;101544.41;;;1.04;100.00
12172;BME280;6149;52.418;13.668;2023-05-01T04:26:46;101540.94;;;1.08;100.00
12172;BME280;6149;52.418;13.668;2023-05-01T04:29:16;101541.78;;;1.12;100.00
12172;BME280;6149;52.418;13.668;2023-05-01T04:31:44;101536.59;;;1.16;100.00
12172;BME280;6149;52.418;13.668;2023-05-01T04:34:12;101530.50;;;1.20;100.00
12172;BME280;6149;52.418;13.668;2023-05-01T04:36:41;101541.81;;;1.24;100.00
12172;BME280;6149;52.418;13.668;2023-05-01T04:39:11;101527.03;;;1.29;100.00
12172;BME280;6149;52.418;13.668;2023-05-01T04:41:39;101531.38;;;1.39;100.00
12172;BME280;6149;52.418;13.668;2023-05-01T04:44:07;101530.53;;;1.43;100.00
12172;BME280;6149;52.418;13.668;2023-05-01T04:46:42;101526.16;;;1.50;100.00
12172;BME280;6149;52.418;13.668;2023-05-01T04:49:10;101515.72;;;1.59;100.00
12172;BME280;6149;52.418;13.668;2023-05-01T04:51:37;101518.31;;;1.65;100.00
12172;BME280;6149;52.418;13.668;2023-05-01T04:54:05;101515.69;;;1.73;100.00
12172;BME280;6149;52.418;13.668;2023-05-01T04:56:35;101520.03;;;1.80;100.00
12172;BME280;6149;52.418;13.668;2023-05-01T04:59:04;101520.84;;;1.88;100.00
12172;BME280;6149;52.418;13.668;2023-05-01T05:01:35;101518.22;;;1.98;100.00
12172;BME280;6149;52.418;13.668;2023-05-01T05:04:17;101508.63;;;2.07;100.00
12172;BME280;6149;52.418;13.668;2023-05-01T05:06:45;101507.72;;;2.15;100.00
12172;BME280;6149;52.418;13.668;2023-05-01T05:09:13;101514.63;;;2.27;100.00
12172;BME280;6149;52.418;13.668;2023-05-01T05:11:41;101509.34;;;2.42;100.00
12172;BME280;6149;52.418;13.668;2023-05-01T05:14:10;101508.44;;;2.49;100.00
12172;BME280;6149;52.418;13.668;2023-05-01T05:16:40;101513.53;;;2.69;100.00
12172;BME280;6149;52.418;13.668;2023-05-01T05:19:12;101502.97;;;2.86;100.00
12172;BME280;6149;52.418;13.668;2023-05-01T05:21:42;101510.75;;;2.95;100.00
12172;BME280;6149;52.418;13.668;2023-05-01T05:24:10;101505.38;;;3.12;100.00
12172;BME280;6149;52.418;13.668;2023-05-01T05:26:40;101498.31;;;3.23;100.00
12172;BME280;6149;52.418;13.668;2023-05-01T05:29:08;101499.94;;;3.34;100.00
12172;BME280;6149;52.418;13.668;2023-05-01T05:31:35;101493.72;;;3.48;100.00
12172;BME280;6149;52.418;13.668;2023-05-01T05:34:03;101487.44;;;3.67;100.00
12172;BME280;6149;52.418;13.668;2023-05-01T05:36:46;101488.78;;;4.01;100.00
12172;BME280;6149;52.418;13.668;2023-05-01T05:39:15;101486.06;;;4.09;100.00
12172;BME280;6149;52.418;13.668;2023-05-01T05:41:41;101485.72;;;4.36;100.00
12172;BME280;6149;52.418;13.668;2023-05-01T05:44:08;101478.47;;;4.54;100.00
12172;BME280;6149;52.418;13.668;2023-05-01T05:46:37;101479.63;;;4.94;100.00
12172;BME280;6149;52.418;13.668;2023-05-01T05:49:06;101475.44;;;5.35;98.85
12172;BME280;6149;52.418;13.668;2023-05-01T05:51:35;101478.28;;;5.70;96.84
12172;BME280;6149;52.418;13.668;2023-05-01T05:54:02;101470.41;;;6.15;92.56
12172;BME280;6149;52.418;13.668;2023-05-01T05:56:31;101469.84;;;6.41;93.64
12172;BME280;6149;52.418;13.668;2023-05-01T05:58:58;101475.25;;;6.72;91.62
12172;BME280;6149;52.418;13.668;2023-05-01T06:01:29;101471.66;;;7.12;85.60
12172;BME280;6149;52.418;13.668;2023-05-01T06:03:56;101466.13;;;7.56;85.67
12172;BME280;6149;52.418;13.668;2023-05-01T06:06:24;101460.31;;;7.76;82.06
12172;BME280;6149;52.418;13.668;2023-05-01T06:08:53;101469.91;;;8.10;78.94
12172;BME280;6149;52.418;13.668;2023-05-01T06:11:19;101473.03;;;8.53;75.03
12172;BME280;6149;52.418;13.668;2023-05-01T06:13:46;101466.69;;;8.87;73.44
12172;BME280;6149;52.418;13.668;2023-05-01T06:16:14;101464.81;;;9.17;73.00
12172;BME280;6149;52.418;13.668;2023-05-01T06:18:45;101470.59;;;9.53;70.97
12172;BME280;6149;52.418;13.668;2023-05-01T06:21:12;101462.22;;;9.90;69.04
12172;BME280;6149;52.418;13.668;2023-05-01T06:23:41;101467.38;;;10.16;66.50
12172;BME280;6149;52.418;13.668;2023-05-01T06:26:11;101468.63;;;10.31;64.18
12172;BME280;6149;52.418;13.668;2023-05-01T06:28:39;101466.13;;;10.50;62.51
12172;BME280;6149;52.418;13.668;2023-05-01T06:31:07;101462.66;;;10.71;64.71
12172;BME280;6149;52.418;13.668;2023-05-01T06:33:37;101458.22;;;10.93;61.52
12172;BME280;6149;52.418;13.668;2023-05-01T06:36:06;101464.38;;;11.14;59.92
12172;BME280;6149;52.418;13.668;2023-05-01T06:38:37;101463.63;;;11.32;59.38
12172;BME280;6149;52.418;13.668;2023-05-01T06:41:07;101457.81;;;11.45;57.51
12172;BME280;6149;52.418;13.668;2023-05-01T06:43:38;101457.94;;;11.62;56.47
12172;BME280;6149;52.418;13.668;2023-05-01T06:46:11;101461.47;;;11.83;57.03
12172;BME280;6149;52.418;13.668;2023-05-01T06:48:42;101460.63;;;12.01;56.98
12172;BME280;6149;52.418;13.668;2023-05-01T06:51:09;101456.38;;;11.97;54.78
12172;BME280;6149;52.418;13.668;2023-05-01T06:53:42;101451.19;;;12.14;55.30
12172;BME280;6149;52.418;13.668;2023-05-01T06:56:14;101455.91;;;12.26;54.23
12172;BME280;6149;52.418;13.668;2023-05-01T06:58:44;101457.34;;;12.15;52.90
12172;BME280;6149;52.418;13.668;2023-05-01T07:01:12;101454.13;;;12.27;54.42
12172;BME280;6149;52.418;13.668;2023-05-01T07:03:43;101453.41;;;12.42;53.07
12172;BME280;6149;52.418;13.668;2023-05-01T07:06:12;101457.22;;;12.55;52.56
12172;BME280;6149;52.418;13.668;2023-05-01T07:08:42;101455.13;;;12.62;53.39
12172;BME280;6149;52.418;13.668;2023-05-01T07:11:10;101453.88;;;12.69;52.46
12172;BME280;6149;52.418;13.668;2023-05-01T07:13:44;101452.50;;;12.79;52.63
12172;BME280;6149;52.418;13.668;2023-05-01T07:16:13;101454.56;;;13.09;52.75
12172;BME280;6149;52.418;13.668;2023-05-01T07:18:41;101448.16;;;13.31;53.39
12172;BME280;6149;52.418;13.668;2023-05-01T07:21:13;101445.16;;;13.55;52.23
12172;BME280;6149;52.418;13.668;2023-05-01T07:23:41;101445.88;;;13.58;51.33
12172;BME280;6149;52.418;13.668;2023-05-01T07:26:11;101447.47;;;13.78;50.59
12172;BME280;6149;52.418;13.668;2023-05-01T07:28:45;101443.69;;;13.82;50.48
12172;BME280;6149;52.418;13.668;2023-05-01T07:31:12;101430.38;;;13.99;50.56
12172;BME280;6149;52.418;13.668;2023-05-01T07:33:47;101436.09;;;13.92;49.09
12172;BME280;6149;52.418;13.668;2023-05-01T07:36:15;101428.41;;;14.19;49.23
12172;BME280;6149;52.418;13.668;2023-05-01T07:38:45;101427.56;;;14.34;48.92
12172;BME280;6149;52.418;13.668;2023-05-01T07:41:14;101426.34;;;14.41;47.82
12172;BME280;6149;52.418;13.668;2023-05-01T07:43:43;101425.69;;;14.36;46.69
12172;BME280;6149;52.418;13.668;2023-05-01T07:46:11;101424.94;;;14.50;47.50
12172;BME280;6149;52.418;13.668;2023-05-01T07:48:39;101413.53;;;14.48;47.40
12172;BME280;6149;52.418;13.668;2023-05-01T07:51:06;101417.97;;;14.63;47.30
12172;BME280;6149;52.418;13.668;2023-05-01T07:53:32;101403.38;;;14.70;47.09
12172;BME280;6149;52.418;13.668;2023-05-01T07:56:05;101404.56;;;15.10;47.64
12172;BME280;6149;52.418;13.668;2023-05-01T07:58:33;101412.97;;;15.18;46.10
12172;BME280;6149;52.418;13.668;2023-05-01T08:01:04;101407.94;;;15.28;46.91
12172;BME280;6149;52.418;13.668;2023-05-01T08:03:31;101403.81;;;15.22;44.97
12172;BME280;6149;52.418;13.668;2023-05-01T08:05:58;101404.16;;;15.02;44.98
12172;BME280;6149;52.418;13.668;2023-05-01T08:08:24;101401.34;;;14.89;44.54
12172;BME280;6149;52.418;13.668;2023-05-01T08:10:53;101397.22;;;14.99;46.97
12172;BME280;6149;52.418;13.668;2023-05-01T08:13:20;101395.72;;;15.10;45.48
12172;BME280;6149;52.418;13.668;2023-05-01T08:15:48;101392.03;;;15.26;45.33
12172;BME280;6149;52.418;13.668;2023-05-01T08:18:16;101397.13;;;15.45;44.96
12172;BME280;6149;52.418;13.668;2023-05-01T08:20:45;101392.75;;;15.44;44.31
12172;BME280;6149;52.418;13.668;2023-05-01T08:23:13;101396.94;;;15.48;43.73
12172;BME280;6149;52.418;13.668;2023-05-01T08:25:41;101396.56;;;15.54;42.20
12172;BME280;6149;52.418;13.668;2023-05-01T08:28:13;101396.22;;;15.60;42.58
12172;BME280;6149;52.418;13.668;2023-05-01T08:30:41;101399.16;;;16.13;44.21
12172;BME280;6149;52.418;13.668;2023-05-01T08:33:10;101398.66;;;16.20;43.69
12172;BME280;6149;52.418;13.668;2023-05-01T08:35:47;101400.00;;;16.27;41.94
12172;BME280;6149;52.418;13.668;2023-05-01T08:38:15;101397.53;;;16.24;43.50
12172;BME280;6149;52.418;13.668;2023-05-01T08:40:50;101397.56;;;16.37;43.46
12172;BME280;6149;52.418;13.668;2023-05-01T08:43:18;101393.72;;;16.55;42.91
12172;BME280;6149;52.418;13.668;2023-05-01T08:45:46;101386.31;;;16.73;40.74
12172;BME280;6149;52.418;13.668;2023-05-01T08:48:15;101381.94;;;16.99;40.88
12172;BME280;6149;52.418;13.668;2023-05-01T08:50:45;101375.22;;;17.19;40.51
12172;BME280;6149;52.418;13.668;2023-05-01T08:53:16;101376.09;;;17.45;39.99
12172;BME280;6149;52.418;13.668;2023-05-01T08:55:46;101379.53;;;17.34;39.30
12172;BME280;6149;52.418;13.668;2023-05-01T08:58:13;101372.78;;;17.41;39.69
12172;BME280;6149;52.418;13.668;2023-05-01T09:00:41;101368.31;;;17.42;39.20
12172;BME280;6149;52.418;13.668;2023-05-01T09:03:11;101360.19;;;17.68;39.83
12172;BME280;6149;52.418;13.668;2023-05-01T09:05:39;101362.81;;;17.56;38.75
12172;BME280;6149;52.418;13.668;2023-05-01T09:08:12;101352.38;;;17.65;39.64
12172;BME280;6149;52.418;13.668;2023-05-01T09:10:43;101352.38;;;17.65;37.59
12172;BME280;6149;52.418;13.668;2023-05-01T09:13:12;101351.47;;;17.90;37.80
12172;BME280;6149;52.418;13.668;2023-05-01T09:15:40;101336.03;;;18.07;38.16
12172;BME280;6149;52.418;13.668;2023-05-01T09:18:12;101344.84;;;18.20;36.56
12172;BME280;6149;52.418;13.668;2023-05-01T09:20:40;101322.31;;;18.35;37.23
12172;BME280;6149;52.418;13.668;2023-05-01T09:23:08;101328.53;;;18.35;37.13
12172;BME280;6149;52.418;13.668;2023-05-01T09:25:37;101325.78;;;18.48;37.33
12172;BME280;6149;52.418;13.668;2023-05-01T09:28:07;101321.69;;;18.55;37.33
12172;BME280;6149;52.418;13.668;2023-05-01T09:30:36;101322.41;;;18.57;37.69
12172;BME280;6149;52.418;13.668;2023-05-01T09:33:11;101331.09;;;18.61;37.23
12172;BME280;6149;52.418;13.668;2023-05-01T09:35:52;101318.97;;;18.68;36.82
12172;BME280;6149;52.418;13.668;2023-05-01T09:38:26;101301.63;;;18.85;37.74
12172;BME280;6149;52.418;13.668;2023-05-01T09:40:59;101305.41;;;18.93;36.64
12172;BME280;6149;52.418;13.668;2023-05-01T09:43:30;101295.47;;;19.18;36.74
12172;BME280;6149;52.418;13.668;2023-05-01T09:46:01;101299.13;;;19.39;36.89
12172;BME280;6149;52.418;13.668;2023-05-01T09:48:31;101290.34;;;19.82;37.27
12172;BME280;6149;52.418;13.668;2023-05-01T09:50:57;101298.41;;;20.04;35.40
12172;BME280;6149;52.418;13.668;2023-05-01T09:53:38;101284.00;;;19.83;36.45
12172;BME280;6149;52.418;13.668;2023-05-01T09:56:08;101289.78;;;19.67;35.07
12172;BME280;6149;52.418;13.668;2023-05-01T09:58:44;101281.94;;;19.42;36.89
12172;BME280;6149;52.418;13.668;2023-05-01T10:01:10;101278.44;;;19.63;37.57
12172;BME280;6149;52.418;13.668;2023-05-01T10:03:37;101281.09;;;19.75;37.05
12172;BME280;6149;52.418;13.668;2023-05-01T10:06:09;101272.78;;;19.89;36.00
12172;BME280;6149;52.418;13.668;2023-05-01T10:08:48;101281.13;;;19.52;34.89
12172;BME280;6149;52.418;13.668;2023-05-01T10:11:17;101269.25;;;19.77;36.69
12172;BME280;6149;52.418;13.668;2023-05-01T10:13:45;101265.88;;;20.07;35.36
12172;BME280;6149;52.418;13.668;2023-05-01T10:16:32;101256.94;;;20.18;34.69
12172;BME280;6149;52.418;13.668;2023-05-01T10:19:01;101260.38;;;20.52;35.46
12172;BME280;6149;52.418;13.668;2023-05-01T10:21:32;101251.69;;;20.59;35.45
12172;BME280;6149;52.418;13.668;2023-05-01T10:24:01;101251.97;;;20.77;36.71
12172;BME280;6149;52.418;13.668;2023-05-01T10:26:32;101253.34;;;20.72;35.22
12172;BME280;6149;52.418;13.668;2023-05-01T10:29:00;101240.47;;;20.54;35.43
12172;BME280;6149;52.418;13.668;2023-05-01T10:31:27;101236.06;;;20.53;34.50
12172;BME280;6149;52.418;13.668;2023-05-01T10:33:57;101232.63;;;20.42;35.58
12172;BME280;6149;52.418;13.668;2023-05-01T10:36:30;101229.63;;;20.45;35.35
12172;BME280;6149;52.418;13.668;2023-05-01T10:39:02;101229.94;;;20.30;33.48
12172;BME280;6149;52.418;13.668;2023-05-01T10:41:59;101206.38;;;20.02;34.27
12172;BME280;6149;52.418;13.668;2023-05-01T10:44:30;101220.38;;;20.06;34.78
12172;BME280;6149;52.418;13.668;2023-05-01T10:46:58;101210.56;;;20.16;36.78
12172;BME280;6149;52.418;13.668;2023-05-01T10:50:01;101202.25;;;20.19;35.50
12172;BME280;6149;52.418;13.668;2023-05-01T10:52:29;101202.03;;;20.43;35.15
12172;BME280;6149;52.418;13.668;2023-05-01T10:58:00;101182.34;;;20.21;34.73
12172;BME280;6149;52.418;13.668;2023-05-01T11:00:29;101186.81;;;20.32;35.58
12172;BME280;6149;52.418;13.668;2023-05-01T11:06:06;101174.84;;;19.72;35.86
12172;BME280;6149;52.418;13.668;2023-05-01T11:08:34;101173.66;;;19.65;36.99
12172;BME280;6149;52.418;13.668;2023-05-01T11:14:16;101163.66;;;19.45;35.32
12172;BME280;6149;52.418;13.668;2023-05-01T11:16:44;101159.16;;;19.45;36.37
12172;BME280;6149;52.418;13.668;2023-05-01T11:19:44;101158.41;;;19.65;36.84
12172;BME280;6149;52.418;13.668;2023-05-01T11:22:14;101154.44;;;19.26;36.12
12172;BME280;6149;52.418;13.668;2023-05-01T11:24:43;101160.28;;;19.09;37.12
12172;BME280;6149;52.418;13.668;2023-05-01T11:27:17;101147.00;;;18.96;35.45
12172;BME280;6149;52.418;13.668;2023-05-01T11:29:45;101149.22;;;18.91;39.18
12172;BME280;6149;52.418;13.668;2023-05-01T11:32:23;101138.25;;;19.06;36.30
12172;BME280;6149;52.418;13.668;2023-05-01T11:34:52;101129.56;;;19.24;38.56
12172;BME280;6149;52.418;13.668;2023-05-01T11:37:20;101127.69;;;19.47;37.11
12172;BME280;6149;52.418;13.668;2023-05-01T11:40:18;101121.59;;;19.45;35.84
12172;BME280;6149;52.418;13.668;2023-05-01T11:42:50;101111.13;;;19.42;36.29
12172;BME280;6149;52.418;13.668;2023-05-01T11:45:18;101097.47;;;19.45;35.30
12172;BME280;6149;52.418;13.668;2023-05-01T11:47:46;101101.13;;;19.55;36.86
12172;BME280;6149;52.418;13.668;2023-05-01T11:50:14;101106.25;;;19.58;36.17
12172;BME280;6149;52.418;13.668;2023-05-01T11:52:44;101109.75;;;19.48;35.84
12172;BME280;6149;52.418;13.668;2023-05-01T11:55:12;101091.84;;;19.48;36.98
12172;BME280;6149;52.418;13.668;2023-05-01T11:57:49;101088.69;;;19.32;35.25
12172;BME280;6149;52.418;13.668;2023-05-01T12:00:26;101099.53;;;19.42;35.00
12172;BME280;6149;52.418;13.668;2023-05-01T12:02:55;101090.34;;;19.23;35.60
12172;BME280;6149;52.418;13.668;2023-05-01T12:05:23;101088.75;;;19.21;36.96
12172;BME280;6149;52.418;13.668;2023-05-01T12:08:05;101089.13;;;19.05;36.40
12172;BME280;6149;52.418;13.668;2023-05-01T12:10:37;101081.22;;;19.03;36.99
12172;BME280;6149;52.418;13.668;2023-05-01T12:13:08;101084.13;;;19.12;36.75
12172;BME280;6149;52.418;13.668;2023-05-01T12:15:38;101077.69;;;19.03;37.53
12172;BME280;6149;52.418;13.668;2023-05-01T12:18:10;101071.09;;;19.07;36.61
12172;BME280;6149;52.418;13.668;2023-05-01T12:20:40;101069.63;;;19.03;36.76
12172;BME280;6149;52.418;13.668;2023-05-01T12:23:11;101057.56;;;19.09;37.61
12172;BME280;6149;52.418;13.668;2023-05-01T12:25:43;101071.34;;;19.04;37.87
12172;BME280;6149;52.418;13.668;2023-05-01T12:28:14;101071.22;;;19.17;36.88
12172;BME280;6149;52.418;13.668;2023-05-01T12:30:44;101057.69;;;19.07;36.12
12172;BME280;6149;52.418;13.668;2023-05-01T12:33:16;101058.84;;;18.93;35.95
12172;BME280;6149;52.418;13.668;2023-05-01T12:35:46;101055.38;;;19.02;36.74
12172;BME280;6149;52.418;13.668;2023-05-01T12:38:16;101053.91;;;19.10;38.04
12172;BME280;6149;52.418;13.668;2023-05-01T12:40:52;101029.63;;;19.22;38.11
12172;BME280;6149;52.418;13.668;2023-05-01T12:43:31;101038.94;;;19.39;37.20
12172;BME280;6149;52.418;13.668;2023-05-01T12:46:00;101042.44;;;19.19;38.06
12172;BME280;6149;52.418;13.668;2023-05-01T12:48:28;101046.72;;;19.10;37.17
12172;BME280;6149;52.418;13.668;2023-05-01T12:50:56;101028.63;;;18.91;37.07
12172;BME280;6149;52.418;13.668;2023-05-01T12:53:24;101031.03;;;18.94;37.66
12172;BME280;6149;52.418;13.668;2023-05-01T12:55:53;101021.50;;;19.01;36.94
12172;BME280;6149;52.418;13.668;2023-05-01T12:58:23;101022.09;;;19.16;37.47
12172;BME280;6149;52.418;13.668;2023-05-01T13:00:51;101013.41;;;19.24;37.30
12172;BME280;6149;52.418;13.668;2023-05-01T13:03:22;101019.94;;;19.31;37.30
12172;BME280;6149;52.418;13.668;2023-05-01T13:05:51;101014.47;;;19.32;37.90
12172;BME280;6149;52.418;13.668;2023-05-01T13:08:24;101009.53;;;19.49;36.20
12172;BME280;6149;52.418;13.668;2023-05-01T13:10:53;101007.28;;;19.33;36.06
12172;BME280;6149;52.418;13.668;2023-05-01T13:13:29;101008.06;;;19.24;36.68
12172;BME280;6149;52.418;13.668;2023-05-01T13:16:07;101006.16;;;19.35;37.60